sensor_id;sensor_type;location;lat;lon;timestamp;P1;durP1;ratioP1;P2;durP2;ratioP2
15256;SDS011;7731;50.720;6.912;2022-11-06T00:01:18;6.37;;;3.13;;
15256;SDS011;7731;50.720;6.912;2022-11-06T00:03:50;5.20;;;3.03;;
15256;SDS011;7731;50.720;6.912;2022-11-06T00:06:21;6.57;;;3.07;;
15256;SDS011;7731;50.720;6.912;2022-11-06T00:09:05;6.63;;;2.90;;
15256;SDS011;7731;50.720;6.912;2022-11-06T00:11:45;6.77;;;3.10;;
15256;SDS011;7731;50.720;6.912;2022-11-06T00:14:20;4.27;;;2.30;;
15256;SDS011;7731;50.720;6.912;2022-11-06T00:16:50;6.07;;;2.80;;
15256;SDS011;7731;50.720;6.912;2022-11-06T00:19:20;7.20;;;2.47;;
15256;SDS011;7731;50.720;6.912;2022-11-06T00:21:51;5.80;;;2.53;;
15256;SDS011;7731;50.720;6.912;2022-11-06T00:24:21;4.13;;;2.30;;
15256;SDS011;7731;50.720;6.912;2022-11-06T00:26:53;4.10;;;2.13;;
15256;SDS011;7731;50.720;6.912;2022-11-06T00:29:24;5.77;;;2.40;;
15256;SDS011;7731;50.720;6.912;2022-11-06T00:31:54;7.07;;;2.43;;
15256;SDS011;7731;50.720;6.912;2022-11-06T00:34:24;9.13;;;2.67;;
15256;SDS011;7731;50.720;6.912;2022-11-06T00:36:54;9.10;;;1.97;;
15256;SDS011;7731;50.720;6.912;2022-11-06T00:39:24;6.83;;;2.03;;
15256;SDS011;7731;50.720;6.912;2022-11-06T00:41:57;7.57;;;2.00;;
15256;SDS011;7731;50.720;6.912;2022-11-06T00:44:30;6.53;;;2.03;;
15256;SDS011;7731;50.720;6.912;2022-11-06T00:47:14;5.33;;;2.47;;
15256;SDS011;7731;50.720;6.912;2022-11-06T00:49:47;4.27;;;2.00;;
15256;SDS011;7731;50.720;6.912;2022-11-06T00:52:18;5.73;;;2.10;;
15256;SDS011;7731;50.720;6.912;2022-11-06T00:54:50;6.33;;;2.63;;
15256;SDS011;7731;50.720;6.912;2022-11-06T00:57:23;4.90;;;2.57;;
15256;SDS011;7731;50.720;6.912;2022-11-06T01:00:00;6.20;;;2.60;;
15256;SDS011;7731;50.720;6.912;2022-11-06T01:02:32;6.67;;;2.60;;
15256;SDS011;7731;50.720;6.912;2022-11-06T01:05:03;7.80;;;2.87;;
15256;SDS011;7731;50.720;6.912;2022-11-06T01:07:34;5.67;;;2.50;;
15256;SDS011;7731;50.720;6.912;2022-11-06T01:10:13;6.87;;;2.70;;
15256;SDS011;7731;50.720;6.912;2022-11-06T01:12:46;5.27;;;2.43;;
15256;SDS011;7731;50.720;6.912;2022-11-06T01:15:19;4.43;;;2.40;;
15256;SDS011;7731;50.720;6.912;2022-11-06T01:17:49;6.87;;;2.63;;
15256;SDS011;7731;50.720;6.912;2022-11-06T01:20:19;8.63;;;2.83;;
15256;SDS011;7731;50.720;6.912;2022-11-06T01:22:49;7.17;;;2.87;;
15256;SDS011;7731;50.720;6.912;2022-11-06T01:25:19;4.63;;;2.70;;
15256;SDS011;7731;50.720;6.912;2022-11-06T01:27:52;7.03;;;2.60;;
15256;SDS011;7731;50.720;6.912;2022-11-06T01:30:22;6.63;;;2.87;;
15256;SDS011;7731;50.720;6.912;2022-11-06T01:32:55;6.90;;;2.87;;
15256;SDS011;7731;50.720;6.912;2022-11-06T01:35:25;7.23;;;2.87;;
15256;SDS011;7731;50.720;6.912;2022-11-06T01:37:58;7.50;;;3.10;;
15256;SDS011;7731;50.720;6.912;2022-11-06T01:40:28;5.60;;;2.47;;
15256;SDS011;7731;50.720;6.912;2022-11-06T01:43:01;4.70;;;2.90;;
15256;SDS011;7731;50.720;6.912;2022-11-06T01:45:32;5.13;;;2.70;;
15256;SDS011;7731;50.720;6.912;2022-11-06T01:48:06;4.90;;;2.70;;
15256;SDS011;7731;50.720;6.912;2022-11-06T01:50:38;4.40;;;2.50;;
15256;SDS011;7731;50.720;6.912;2022-11-06T01:53:15;4.67;;;2.20;;
15256;SDS011;7731;50.720;6.912;2022-11-06T01:55:46;7.07;;;2.80;;
15256;SDS011;7731;50.720;6.912;2022-11-06T01:58:24;6.10;;;3.03;;
15256;SDS011;7731;50.720;6.912;2022-11-06T02:01:00;9.33;;;5.57;;
15256;SDS011;7731;50.720;6.912;2022-11-06T02:03:34;10.07;;;7.37;;
15256;SDS011;7731;50.720;6.912;2022-11-06T02:06:05;10.07;;;6.43;;
15256;SDS011;7731;50.720;6.912;2022-11-06T02:08:39;7.43;;;4.43;;
15256;SDS011;7731;50.720;6.912;2022-11-06T02:11:25;7.77;;;4.90;;
15256;SDS011;7731;50.720;6.912;2022-11-06T02:14:00;4.37;;;3.20;;
15256;SDS011;7731;50.720;6.912;2022-11-06T02:16:47;5.53;;;3.40;;
15256;SDS011;7731;50.720;6.912;2022-11-06T02:22:35;7.13;;;2.80;;
15256;SDS011;7731;50.720;6.912;2022-11-06T02:25:37;9.83;;;3.17;;
15256;SDS011;7731;50.720;6.912;2022-11-06T02:28:22;4.50;;;2.30;;
15256;SDS011;7731;50.720;6.912;2022-11-06T02:31:01;6.33;;;2.70;;
15256;SDS011;7731;50.720;6.912;2022-11-06T02:33:42;6.77;;;1.97;;
15256;SDS011;7731;50.720;6.912;2022-11-06T02:36:20;3.80;;;2.37;;
15256;SDS011;7731;50.720;6.912;2022-11-06T02:38:59;5.43;;;2.20;;
15256;SDS011;7731;50.720;6.912;2022-11-06T02:41:36;5.03;;;2.20;;
15256;SDS011;7731;50.720;6.912;2022-11-06T02:44:16;7.17;;;2.20;;
15256;SDS011;7731;50.720;6.912;2022-11-06T02:46:52;7.17;;;2.20;;
15256;SDS011;7731;50.720;6.912;2022-11-06T02:49:27;4.50;;;1.87;;
15256;SDS011;7731;50.720;6.912;2022-11-06T02:52:07;5.73;;;2.23;;
15256;SDS011;7731;50.720;6.912;2022-11-06T02:54:50;4.63;;;2.00;;
15256;SDS011;7731;50.720;6.912;2022-11-06T02:57:26;5.70;;;1.90;;
15256;SDS011;7731;50.720;6.912;2022-11-06T03:00:09;3.63;;;2.00;;
15256;SDS011;7731;50.720;6.912;2022-11-06T03:02:45;5.30;;;2.17;;
15256;SDS011;7731;50.720;6.912;2022-11-06T03:05:26;4.93;;;1.90;;
15256;SDS011;7731;50.720;6.912;2022-11-06T03:08:05;4.13;;;1.93;;
15256;SDS011;7731;50.720;6.912;2022-11-06T03:10:49;4.50;;;2.10;;
15256;SDS011;7731;50.720;6.912;2022-11-06T03:13:31;5.87;;;2.00;;
15256;SDS011;7731;50.720;6.912;2022-11-06T03:16:21;5.20;;;2.37;;
15256;SDS011;7731;50.720;6.912;2022-11-06T03:19:00;5.57;;;2.00;;
15256;SDS011;7731;50.720;6.912;2022-11-06T03:21:37;5.27;;;1.83;;
15256;SDS011;7731;50.720;6.912;2022-11-06T03:24:22;5.93;;;2.00;;
15256;SDS011;7731;50.720;6.912;2022-11-06T03:27:03;5.83;;;2.23;;
15256;SDS011;7731;50.720;6.912;2022-11-06T03:29:43;3.40;;;1.77;;
15256;SDS011;7731;50.720;6.912;2022-11-06T03:32:22;5.60;;;1.80;;
15256;SDS011;7731;50.720;6.912;2022-11-06T03:35:02;3.80;;;1.70;;
15256;SDS011;7731;50.720;6.912;2022-11-06T03:37:41;6.03;;;2.07;;
15256;SDS011;7731;50.720;6.912;2022-11-06T03:40:18;5.67;;;1.80;;
15256;SDS011;7731;50.720;6.912;2022-11-06T03:42:52;3.73;;;1.53;;
15256;SDS011;7731;50.720;6.912;2022-11-06T03:45:28;4.43;;;1.73;;
15256;SDS011;7731;50.720;6.912;2022-11-06T03:48:10;2.77;;;1.40;;
15256;SDS011;7731;50.720;6.912;2022-11-06T03:50:50;5.27;;;1.50;;
15256;SDS011;7731;50.720;6.912;2022-11-06T03:53:33;4.13;;;1.30;;
15256;SDS011;7731;50.720;6.912;2022-11-06T03:56:11;7.40;;;2.67;;
15256;SDS011;7731;50.720;6.912;2022-11-06T03:58:49;5.93;;;1.50;;
15256;SDS011;7731;50.720;6.912;2022-11-06T04:01:27;3.13;;;1.50;;
15256;SDS011;7731;50.720;6.912;2022-11-06T04:04:13;4.23;;;1.90;;
15256;SDS011;7731;50.720;6.912;2022-11-06T04:06:52;3.53;;;1.40;;
15256;SDS011;7731;50.720;6.912;2022-11-06T04:09:28;4.17;;;1.70;;
15256;SDS011;7731;50.720;6.912;2022-11-06T04:12:16;5.10;;;1.73;;
15256;SDS011;7731;50.720;6.912;2022-11-06T04:15:05;3.63;;;1.60;;
15256;SDS011;7731;50.720;6.912;2022-11-06T04:17:45;3.43;;;1.53;;
15256;SDS011;7731;50.720;6.912;2022-11-06T04:20:20;5.00;;;1.60;;
15256;SDS011;7731;50.720;6.912;2022-11-06T04:23:17;2.30;;;1.50;;
15256;SDS011;7731;50.720;6.912;2022-11-06T04:26:04;4.83;;;1.47;;
15256;SDS011;7731;50.720;6.912;2022-11-06T04:28:59;5.10;;;1.80;;
15256;SDS011;7731;50.720;6.912;2022-11-06T04:31:41;5.40;;;1.80;;
15256;SDS011;7731;50.720;6.912;2022-11-06T04:34:26;5.93;;;1.70;;
15256;SDS011;7731;50.720;6.912;2022-11-06T04:37:15;7.53;;;2.53;;
15256;SDS011;7731;50.720;6.912;2022-11-06T04:39:55;4.93;;;1.90;;
15256;SDS011;7731;50.720;6.912;2022-11-06T04:42:39;4.57;;;1.60;;
15256;SDS011;7731;50.720;6.912;2022-11-06T04:45:19;7.30;;;2.23;;
15256;SDS011;7731;50.720;6.912;2022-11-06T04:47:56;3.30;;;1.50;;
15256;SDS011;7731;50.720;6.912;2022-11-06T04:50:31;3.27;;;1.47;;
15256;SDS011;7731;50.720;6.912;2022-11-06T04:53:10;4.30;;;1.60;;
15256;SDS011;7731;50.720;6.912;2022-11-06T04:55:45;6.63;;;1.60;;
15256;SDS011;7731;50.720;6.912;2022-11-06T04:58:16;4.03;;;1.50;;
15256;SDS011;7731;50.720;6.912;2022-11-06T05:00:47;5.87;;;1.70;;
15256;SDS011;7731;50.720;6.912;2022-11-06T05:03:22;5.97;;;3.33;;
15256;SDS011;7731;50.720;6.912;2022-11-06T05:05:52;4.63;;;2.00;;
15256;SDS011;7731;50.720;6.912;2022-11-06T05:08:24;5.07;;;2.10;;
15256;SDS011;7731;50.720;6.912;2022-11-06T05:10:54;7.57;;;1.67;;
15256;SDS011;7731;50.720;6.912;2022-11-06T05:13:25;5.40;;;1.50;;
15256;SDS011;7731;50.720;6.912;2022-11-06T05:16:00;3.67;;;1.87;;
15256;SDS011;7731;50.720;6.912;2022-11-06T05:18:30;4.17;;;1.90;;
15256;SDS011;7731;50.720;6.912;2022-11-06T05:21:03;5.87;;;1.80;;
15256;SDS011;7731;50.720;6.912;2022-11-06T05:23:49;4.90;;;2.17;;
15256;SDS011;7731;50.720;6.912;2022-11-06T05:26:19;6.37;;;2.17;;
15256;SDS011;7731;50.720;6.912;2022-11-06T05:28:49;7.43;;;2.67;;
15256;SDS011;7731;50.720;6.912;2022-11-06T05:31:23;6.50;;;2.43;;
15256;SDS011;7731;50.720;6.912;2022-11-06T05:33:54;7.63;;;3.00;;
15256;SDS011;7731;50.720;6.912;2022-11-06T05:36:24;6.17;;;2.10;;
15256;SDS011;7731;50.720;6.912;2022-11-06T05:38:59;5.30;;;2.40;;
15256;SDS011;7731;50.720;6.912;2022-11-06T05:41:29;4.70;;;2.30;;
15256;SDS011;7731;50.720;6.912;2022-11-06T05:43:59;5.67;;;2.53;;
15256;SDS011;7731;50.720;6.912;2022-11-06T05:46:29;6.53;;;1.90;;
15256;SDS011;7731;50.720;6.912;2022-11-06T05:49:15;17.57;;;10.50;;
15256;SDS011;7731;50.720;6.912;2022-11-06T05:51:49;6.40;;;2.17;;
15256;SDS011;7731;50.720;6.912;2022-11-06T05:54:22;5.63;;;2.10;;
15256;SDS011;7731;50.720;6.912;2022-11-06T05:56:52;4.37;;;1.60;;
15256;SDS011;7731;50.720;6.912;2022-11-06T05:59:23;5.60;;;1.80;;
15256;SDS011;7731;50.720;6.912;2022-11-06T06:01:53;2.90;;;1.80;;
15256;SDS011;7731;50.720;6.912;2022-11-06T06:04:24;5.90;;;2.10;;
15256;SDS011;7731;50.720;6.912;2022-11-06T06:06:57;5.17;;;2.20;;
15256;SDS011;7731;50.720;6.912;2022-11-06T06:09:30;5.90;;;2.27;;
15256;SDS011;7731;50.720;6.912;2022-11-06T06:12:01;4.60;;;2.10;;
15256;SDS011;7731;50.720;6.912;2022-11-06T06:14:35;6.03;;;2.20;;
15256;SDS011;7731;50.720;6.912;2022-11-06T06:17:05;8.83;;;2.53;;
15256;SDS011;7731;50.720;6.912;2022-11-06T06:19:35;5.33;;;2.33;;
15256;SDS011;7731;50.720;6.912;2022-11-06T06:22:05;6.20;;;2.30;;
15256;SDS011;7731;50.720;6.912;2022-11-06T06:24:38;4.57;;;2.13;;
15256;SDS011;7731;50.720;6.912;2022-11-06T06:27:15;8.10;;;2.40;;
15256;SDS011;7731;50.720;6.912;2022-11-06T06:29:45;6.43;;;2.50;;
15256;SDS011;7731;50.720;6.912;2022-11-06T06:32:15;7.40;;;2.40;;
15256;SDS011;7731;50.720;6.912;2022-11-06T06:34:45;5.67;;;2.47;;
15256;SDS011;7731;50.720;6.912;2022-11-06T06:37:15;6.50;;;2.63;;
15256;SDS011;7731;50.720;6.912;2022-11-06T06:39:48;6.47;;;2.50;;
15256;SDS011;7731;50.720;6.912;2022-11-06T06:42:18;7.67;;;2.40;;
15256;SDS011;7731;50.720;6.912;2022-11-06T06:44:56;6.67;;;2.67;;
15256;SDS011;7731;50.720;6.912;2022-11-06T06:47:32;9.37;;;2.93;;
15256;SDS011;7731;50.720;6.912;2022-11-06T06:50:03;9.03;;;2.67;;
15256;SDS011;7731;50.720;6.912;2022-11-06T06:52:34;5.53;;;2.17;;
15256;SDS011;7731;50.720;6.912;2022-11-06T06:55:07;5.90;;;2.23;;
15256;SDS011;7731;50.720;6.912;2022-11-06T06:57:40;6.67;;;2.63;;
15256;SDS011;7731;50.720;6.912;2022-11-06T07:00:13;5.20;;;2.20;;
15256;SDS011;7731;50.720;6.912;2022-11-06T07:02:44;6.70;;;2.77;;
15256;SDS011;7731;50.720;6.912;2022-11-06T07:05:14;5.90;;;2.60;;
15256;SDS011;7731;50.720;6.912;2022-11-06T07:07:44;8.80;;;2.40;;
15256;SDS011;7731;50.720;6.912;2022-11-06T07:10:19;7.10;;;4.30;;
15256;SDS011;7731;50.720;6.912;2022-11-06T07:12:49;27.23;;;11.50;;
15256;SDS011;7731;50.720;6.912;2022-11-06T07:15:22;44.17;;;22.03;;
15256;SDS011;7731;50.720;6.912;2022-11-06T07:17:52;29.57;;;13.13;;
15256;SDS011;7731;50.720;6.912;2022-11-06T07:20:22;27.90;;;8.73;;
15256;SDS011;7731;50.720;6.912;2022-11-06T07:22:54;19.33;;;7.13;;
15256;SDS011;7731;50.720;6.912;2022-11-06T07:25:28;32.73;;;11.37;;
15256;SDS011;7731;50.720;6.912;2022-11-06T07:28:01;12.47;;;5.00;;
15256;SDS011;7731;50.720;6.912;2022-11-06T07:30:33;8.97;;;3.70;;
15256;SDS011;7731;50.720;6.912;2022-11-06T07:33:04;8.50;;;4.43;;
15256;SDS011;7731;50.720;6.912;2022-11-06T07:35:34;14.43;;;5.27;;
15256;SDS011;7731;50.720;6.912;2022-11-06T07:38:05;4.97;;;2.90;;
15256;SDS011;7731;50.720;6.912;2022-11-06T07:40:50;7.53;;;2.60;;
15256;SDS011;7731;50.720;6.912;2022-11-06T07:43:20;12.10;;;5.03;;
15256;SDS011;7731;50.720;6.912;2022-11-06T07:45:52;9.50;;;4.33;;
15256;SDS011;7731;50.720;6.912;2022-11-06T07:48:24;12.45;;;4.72;;
15256;SDS011;7731;50.720;6.912;2022-11-06T07:50:55;5.38;;;2.90;;
15256;SDS011;7731;50.720;6.912;2022-11-06T07:53:26;5.72;;;2.75;;
15256;SDS011;7731;50.720;6.912;2022-11-06T07:55:58;5.78;;;3.42;;
15256;SDS011;7731;50.720;6.912;2022-11-06T07:58:29;7.63;;;2.60;;
15256;SDS011;7731;50.720;6.912;2022-11-06T08:01:01;4.63;;;3.00;;
15256;SDS011;7731;50.720;6.912;2022-11-06T08:03:31;6.05;;;2.33;;
15256;SDS011;7731;50.720;6.912;2022-11-06T08:06:04;4.90;;;2.10;;
15256;SDS011;7731;50.720;6.912;2022-11-06T08:08:35;3.10;;;1.70;;
15256;SDS011;7731;50.720;6.912;2022-11-06T08:11:09;5.25;;;1.80;;
15256;SDS011;7731;50.720;6.912;2022-11-06T08:13:43;4.25;;;1.60;;
15256;SDS011;7731;50.720;6.912;2022-11-06T08:16:13;2.72;;;1.52;;
15256;SDS011;7731;50.720;6.912;2022-11-06T08:18:43;3.20;;;1.60;;
15256;SDS011;7731;50.720;6.912;2022-11-06T08:21:14;4.90;;;1.77;;
15256;SDS011;7731;50.720;6.912;2022-11-06T08:23:44;4.18;;;1.60;;
15256;SDS011;7731;50.720;6.912;2022-11-06T08:26:17;4.30;;;1.73;;
15256;SDS011;7731;50.720;6.912;2022-11-06T08:28:47;3.78;;;1.85;;
15256;SDS011;7731;50.720;6.912;2022-11-06T08:31:17;5.40;;;1.83;;
15256;SDS011;7731;50.720;6.912;2022-11-06T08:33:55;3.55;;;1.80;;
15256;SDS011;7731;50.720;6.912;2022-11-06T08:36:25;4.53;;;1.83;;
15256;SDS011;7731;50.720;6.912;2022-11-06T08:38:55;6.07;;;1.70;;
15256;SDS011;7731;50.720;6.912;2022-11-06T08:41:37;4.05;;;1.88;;
15256;SDS011;7731;50.720;6.912;2022-11-06T08:44:10;6.07;;;2.53;;
15256;SDS011;7731;50.720;6.912;2022-11-06T08:46:43;4.75;;;2.60;;
15256;SDS011;7731;50.720;6.912;2022-11-06T08:49:17;4.63;;;2.10;;
15256;SDS011;7731;50.720;6.912;2022-11-06T08:51:50;4.03;;;1.80;;
15256;SDS011;7731;50.720;6.912;2022-11-06T08:54:20;4.45;;;1.90;;
15256;SDS011;7731;50.720;6.912;2022-11-06T08:56:59;3.72;;;1.90;;
15256;SDS011;7731;50.720;6.912;2022-11-06T08:59:29;6.13;;;2.13;;
15256;SDS011;7731;50.720;6.912;2022-11-06T09:02:04;4.78;;;2.03;;
15256;SDS011;7731;50.720;6.912;2022-11-06T09:04:37;3.83;;;2.00;;
15256;SDS011;7731;50.720;6.912;2022-11-06T09:07:07;4.68;;;1.92;;
15256;SDS011;7731;50.720;6.912;2022-11-06T09:09:37;4.70;;;2.13;;
15256;SDS011;7731;50.720;6.912;2022-11-06T09:12:10;2.33;;;1.55;;
15256;SDS011;7731;50.720;6.912;2022-11-06T09:14:43;2.90;;;1.60;;
15256;SDS011;7731;50.720;6.912;2022-11-06T09:17:13;3.72;;;1.60;;
15256;SDS011;7731;50.720;6.912;2022-11-06T09:19:48;3.83;;;1.70;;
15256;SDS011;7731;50.720;6.912;2022-11-06T09:22:30;4.35;;;1.83;;
15256;SDS011;7731;50.720;6.912;2022-11-06T09:25:01;3.83;;;2.03;;
15256;SDS011;7731;50.720;6.912;2022-11-06T09:27:35;5.22;;;1.88;;
15256;SDS011;7731;50.720;6.912;2022-11-06T09:30:11;5.00;;;1.95;;
15256;SDS011;7731;50.720;6.912;2022-11-06T09:32:52;3.38;;;2.10;;
15256;SDS011;7731;50.720;6.912;2022-11-06T09:35:24;3.40;;;1.98;;
15256;SDS011;7731;50.720;6.912;2022-11-06T09:37:59;5.47;;;2.38;;
15256;SDS011;7731;50.720;6.912;2022-11-06T09:40:32;3.20;;;1.60;;
15256;SDS011;7731;50.720;6.912;2022-11-06T09:43:18;1.88;;;1.15;;
15256;SDS011;7731;50.720;6.912;2022-11-06T09:46:20;4.68;;;1.90;;
15256;SDS011;7731;50.720;6.912;2022-11-06T09:48:55;3.88;;;2.35;;
15256;SDS011;7731;50.720;6.912;2022-11-06T09:51:35;3.15;;;2.03;;
15256;SDS011;7731;50.720;6.912;2022-11-06T09:54:11;3.63;;;1.80;;
15256;SDS011;7731;50.720;6.912;2022-11-06T09:56:53;3.95;;;1.88;;
15256;SDS011;7731;50.720;6.912;2022-11-06T09:59:31;4.78;;;2.17;;
15256;SDS011;7731;50.720;6.912;2022-11-06T10:02:13;6.22;;;3.33;;
15256;SDS011;7731;50.720;6.912;2022-11-06T10:05:00;5.95;;;2.13;;
15256;SDS011;7731;50.720;6.912;2022-11-06T10:07:41;5.70;;;2.33;;
15256;SDS011;7731;50.720;6.912;2022-11-06T10:10:21;2.80;;;1.85;;
15256;SDS011;7731;50.720;6.912;2022-11-06T10:13:12;3.65;;;1.77;;
15256;SDS011;7731;50.720;6.912;2022-11-06T10:16:04;3.42;;;1.70;;
15256;SDS011;7731;50.720;6.912;2022-11-06T10:18:48;2.50;;;1.58;;
15256;SDS011;7731;50.720;6.912;2022-11-06T10:21:33;4.57;;;1.88;;
15256;SDS011;7731;50.720;6.912;2022-11-06T10:24:20;3.83;;;1.95;;
15256;SDS011;7731;50.720;6.912;2022-11-06T10:26:58;2.50;;;1.75;;
15256;SDS011;7731;50.720;6.912;2022-11-06T10:32:50;5.35;;;2.00;;
15256;SDS011;7731;50.720;6.912;2022-11-06T10:35:40;3.28;;;1.80;;
15256;SDS011;7731;50.720;6.912;2022-11-06T10:38:22;2.95;;;1.60;;
15256;SDS011;7731;50.720;6.912;2022-11-06T10:41:09;4.38;;;2.20;;
15256;SDS011;7731;50.720;6.912;2022-11-06T10:43:50;3.78;;;1.52;;
15256;SDS011;7731;50.720;6.912;2022-11-06T10:46:32;6.45;;;2.10;;
15256;SDS011;7731;50.720;6.912;2022-11-06T10:49:14;4.90;;;1.60;;
15256;SDS011;7731;50.720;6.912;2022-11-06T10:51:56;5.95;;;1.70;;
15256;SDS011;7731;50.720;6.912;2022-11-06T10:54:57;4.05;;;1.60;;
15256;SDS011;7731;50.720;6.912;2022-11-06T10:58:03;4.18;;;1.77;;
15256;SDS011;7731;50.720;6.912;2022-11-06T11:00:39;3.95;;;2.42;;
15256;SDS011;7731;50.720;6.912;2022-11-06T11:03:15;3.08;;;2.30;;
15256;SDS011;7731;50.720;6.912;2022-11-06T11:05:55;3.10;;;2.22;;
15256;SDS011;7731;50.720;6.912;2022-11-06T11:08:35;3.65;;;2.20;;
15256;SDS011;7731;50.720;6.912;2022-11-06T11:11:15;6.57;;;2.40;;
15256;SDS011;7731;50.720;6.912;2022-11-06T11:16:45;9.63;;;2.63;;
15256;SDS011;7731;50.720;6.912;2022-11-06T11:19:25;3.65;;;1.95;;
15256;SDS011;7731;50.720;6.912;2022-11-06T11:22:17;4.38;;;2.30;;
15256;SDS011;7731;50.720;6.912;2022-11-06T11:24:58;6.68;;;2.88;;
15256;SDS011;7731;50.720;6.912;2022-11-06T11:27:31;6.78;;;2.83;;
15256;SDS011;7731;50.720;6.912;2022-11-06T11:30:18;5.25;;;2.25;;
15256;SDS011;7731;50.720;6.912;2022-11-06T11:32:54;10.73;;;3.85;;
15256;SDS011;7731;50.720;6.912;2022-11-06T11:35:26;6.15;;;2.03;;
15256;SDS011;7731;50.720;6.912;2022-11-06T11:38:16;10.85;;;5.13;;
15256;SDS011;7731;50.720;6.912;2022-11-06T11:40:48;13.70;;;6.35;;
15256;SDS011;7731;50.720;6.912;2022-11-06T11:43:22;10.63;;;3.42;;
15256;SDS011;7731;50.720;6.912;2022-11-06T11:46:01;6.40;;;2.92;;
15256;SDS011;7731;50.720;6.912;2022-11-06T11:48:43;4.55;;;2.40;;
15256;SDS011;7731;50.720;6.912;2022-11-06T11:51:22;5.65;;;2.60;;
15256;SDS011;7731;50.720;6.912;2022-11-06T11:54:14;3.85;;;2.22;;
15256;SDS011;7731;50.720;6.912;2022-11-06T11:56:52;3.88;;;1.95;;
15256;SDS011;7731;50.720;6.912;2022-11-06T11:59:31;6.00;;;3.45;;
15256;SDS011;7731;50.720;6.912;2022-11-06T12:02:13;5.45;;;2.47;;
15256;SDS011;7731;50.720;6.912;2022-11-06T12:04:54;4.35;;;1.60;;
15256;SDS011;7731;50.720;6.912;2022-11-06T12:07:30;4.07;;;1.67;;
15256;SDS011;7731;50.720;6.912;2022-11-06T12:10:18;3.53;;;1.45;;
15256;SDS011;7731;50.720;6.912;2022-11-06T12:12:55;4.30;;;1.52;;
15256;SDS011;7731;50.720;6.912;2022-11-06T12:15:29;1.75;;;1.27;;
15256;SDS011;7731;50.720;6.912;2022-11-06T12:18:13;3.35;;;1.50;;
15256;SDS011;7731;50.720;6.912;2022-11-06T12:20:48;2.63;;;1.38;;
15256;SDS011;7731;50.720;6.912;2022-11-06T12:23:24;2.22;;;1.17;;
15256;SDS011;7731;50.720;6.912;2022-11-06T12:26:06;4.65;;;1.42;;
15256;SDS011;7731;50.720;6.912;2022-11-06T12:28:50;4.22;;;1.92;;
15256;SDS011;7731;50.720;6.912;2022-11-06T12:31:34;3.58;;;1.70;;
15256;SDS011;7731;50.720;6.912;2022-11-06T12:34:10;2.38;;;1.20;;
15256;SDS011;7731;50.720;6.912;2022-11-06T12:36:56;1.73;;;1.27;;
15256;SDS011;7731;50.720;6.912;2022-11-06T12:39:51;3.38;;;1.98;;
15256;SDS011;7731;50.720;6.912;2022-11-06T12:42:33;6.00;;;2.47;;
15256;SDS011;7731;50.720;6.912;2022-11-06T12:45:10;2.05;;;1.40;;
15256;SDS011;7731;50.720;6.912;2022-11-06T12:47:43;3.53;;;1.98;;
15256;SDS011;7731;50.720;6.912;2022-11-06T12:50:29;3.92;;;2.03;;
15256;SDS011;7731;50.720;6.912;2022-11-06T12:53:19;3.42;;;1.50;;
15256;SDS011;7731;50.720;6.912;2022-11-06T12:56:20;4.43;;;2.10;;
15256;SDS011;7731;50.720;6.912;2022-11-06T12:59:11;4.15;;;1.70;;
15256;SDS011;7731;50.720;6.912;2022-11-06T13:02:00;4.20;;;1.73;;
15256;SDS011;7731;50.720;6.912;2022-11-06T13:04:54;3.05;;;2.08;;
15256;SDS011;7731;50.720;6.912;2022-11-06T13:10:50;2.47;;;1.17;;
15256;SDS011;7731;50.720;6.912;2022-11-06T13:13:55;3.28;;;1.02;;
15256;SDS011;7731;50.720;6.912;2022-11-06T13:16:44;3.67;;;1.17;;
15256;SDS011;7731;50.720;6.912;2022-11-06T13:19:32;2.67;;;1.42;;
15256;SDS011;7731;50.720;6.912;2022-11-06T13:22:22;2.30;;;1.30;;
15256;SDS011;7731;50.720;6.912;2022-11-06T13:25:03;2.58;;;1.20;;
15256;SDS011;7731;50.720;6.912;2022-11-06T13:27:46;2.55;;;1.17;;
15256;SDS011;7731;50.720;6.912;2022-11-06T13:30:34;3.10;;;1.17;;
15256;SDS011;7731;50.720;6.912;2022-11-06T13:33:11;3.60;;;1.10;;
15256;SDS011;7731;50.720;6.912;2022-11-06T13:35:54;2.22;;;1.27;;
15256;SDS011;7731;50.720;6.912;2022-11-06T13:38:26;2.08;;;1.20;;
15256;SDS011;7731;50.720;6.912;2022-11-06T13:41:06;2.35;;;1.55;;
15256;SDS011;7731;50.720;6.912;2022-11-06T13:43:47;5.25;;;1.70;;
15256;SDS011;7731;50.720;6.912;2022-11-06T13:46:33;3.38;;;1.00;;
15256;SDS011;7731;50.720;6.912;2022-11-06T13:49:19;2.42;;;1.13;;
15256;SDS011;7731;50.720;6.912;2022-11-06T13:51:59;2.45;;;1.30;;
15256;SDS011;7731;50.720;6.912;2022-11-06T13:54:40;3.13;;;1.30;;
15256;SDS011;7731;50.720;6.912;2022-11-06T13:57:34;3.45;;;1.70;;
15256;SDS011;7731;50.720;6.912;2022-11-06T14:00:45;1.88;;;1.30;;
15256;SDS011;7731;50.720;6.912;2022-11-06T14:06:42;2.58;;;1.20;;
15256;SDS011;7731;50.720;6.912;2022-11-06T14:09:14;10.38;;;1.83;;
15256;SDS011;7731;50.720;6.912;2022-11-06T14:11:51;4.25;;;1.45;;
15256;SDS011;7731;50.720;6.912;2022-11-06T14:14:26;4.78;;;1.60;;
15256;SDS011;7731;50.720;6.912;2022-11-06T14:20:03;1.90;;;1.35;;
15256;SDS011;7731;50.720;6.912;2022-11-06T14:22:55;3.15;;;1.77;;
15256;SDS011;7731;50.720;6.912;2022-11-06T14:26:18;2.92;;;1.52;;
15256;SDS011;7731;50.720;6.912;2022-11-06T14:32:46;3.33;;;1.75;;
15256;SDS011;7731;50.720;6.912;2022-11-06T14:44:30;3.33;;;1.63;;
15256;SDS011;7731;50.720;6.912;2022-11-06T14:47:27;3.63;;;1.30;;
15256;SDS011;7731;50.720;6.912;2022-11-06T14:50:07;3.28;;;1.42;;
15256;SDS011;7731;50.720;6.912;2022-11-06T14:52:56;3.80;;;1.92;;
15256;SDS011;7731;50.720;6.912;2022-11-06T14:55:31;4.72;;;1.90;;
15256;SDS011;7731;50.720;6.912;2022-11-06T14:58:13;3.10;;;2.10;;
15256;SDS011;7731;50.720;6.912;2022-11-06T15:00:51;2.85;;;2.40;;
15256;SDS011;7731;50.720;6.912;2022-11-06T15:03:33;3.42;;;2.58;;
15256;SDS011;7731;50.720;6.912;2022-11-06T15:06:20;4.57;;;2.05;;
15256;SDS011;7731;50.720;6.912;2022-11-06T15:12:15;9.20;;;4.18;;
15256;SDS011;7731;50.720;6.912;2022-11-06T15:15:01;9.52;;;3.72;;
15256;SDS011;7731;50.720;6.912;2022-11-06T15:17:48;4.55;;;2.30;;
15256;SDS011;7731;50.720;6.912;2022-11-06T15:20:19;5.35;;;2.22;;
15256;SDS011;7731;50.720;6.912;2022-11-06T15:23:13;3.70;;;2.15;;
15256;SDS011;7731;50.720;6.912;2022-11-06T15:25:58;13.50;;;6.72;;
15256;SDS011;7731;50.720;6.912;2022-11-06T15:28:39;19.80;;;10.73;;
15256;SDS011;7731;50.720;6.912;2022-11-06T15:31:15;8.07;;;4.10;;
15256;SDS011;7731;50.720;6.912;2022-11-06T15:33:50;4.90;;;2.80;;
15256;SDS011;7731;50.720;6.912;2022-11-06T15:36:33;3.35;;;2.53;;
15256;SDS011;7731;50.720;6.912;2022-11-06T15:39:22;3.65;;;2.88;;
15256;SDS011;7731;50.720;6.912;2022-11-06T15:42:04;8.93;;;5.35;;
15256;SDS011;7731;50.720;6.912;2022-11-06T15:44:37;5.72;;;3.90;;
15256;SDS011;7731;50.720;6.912;2022-11-06T15:47:18;4.30;;;2.72;;
15256;SDS011;7731;50.720;6.912;2022-11-06T15:50:12;4.53;;;2.70;;
15256;SDS011;7731;50.720;6.912;2022-11-06T15:52:45;3.90;;;2.30;;
15256;SDS011;7731;50.720;6.912;2022-11-06T15:55:23;5.88;;;4.13;;
15256;SDS011;7731;50.720;6.912;2022-11-06T15:58:12;4.25;;;3.47;;
15256;SDS011;7731;50.720;6.912;2022-11-06T16:01:06;3.95;;;2.70;;
15256;SDS011;7731;50.720;6.912;2022-11-06T16:03:47;4.47;;;2.90;;
15256;SDS011;7731;50.720;6.912;2022-11-06T16:06:38;5.85;;;3.78;;
15256;SDS011;7731;50.720;6.912;2022-11-06T16:09:12;7.03;;;5.95;;
15256;SDS011;7731;50.720;6.912;2022-11-06T16:11:47;7.15;;;6.05;;
15256;SDS011;7731;50.720;6.912;2022-11-06T16:14:22;9.05;;;7.55;;
15256;SDS011;7731;50.720;6.912;2022-11-06T16:16:53;15.70;;;14.20;;
15256;SDS011;7731;50.720;6.912;2022-11-06T16:19:26;21.57;;;19.30;;
15256;SDS011;7731;50.720;6.912;2022-11-06T16:22:04;18.17;;;16.23;;
15256;SDS011;7731;50.720;6.912;2022-11-06T16:24:42;12.93;;;8.53;;
15256;SDS011;7731;50.720;6.912;2022-11-06T16:27:26;5.00;;;4.50;;
15256;SDS011;7731;50.720;6.912;2022-11-06T16:30:18;5.90;;;4.57;;
15256;SDS011;7731;50.720;6.912;2022-11-06T16:32:51;9.70;;;7.53;;
15256;SDS011;7731;50.720;6.912;2022-11-06T16:35:31;5.43;;;4.17;;
15256;SDS011;7731;50.720;6.912;2022-11-06T16:38:26;9.50;;;4.13;;
15256;SDS011;7731;50.720;6.912;2022-11-06T16:41:13;5.60;;;4.10;;